Time;durP1;ratioP1;P1;durP2;ratioP2;P2;SDS_P1;SDS_P2;PMS_P1;PMS_P2;Temp;Humidity;BMP_temperature;BMP_pressure;BME280_temperature;BME280_humidity;BME280_pressure;Samples;Min_cycle;Max_cycle;Signal;HPM_P1;HPM_P2
2022/08/31 00:06:14;;;;;;;7.68;5.65;;;;;;;25.77;75.20;100666.72;5005817;28;20061;-80
2022/08/31 00:08:42;;;;;;;6.22;5.20;;;;;;;25.67;75.56;100665.41;5011659;28;20413;-80
2022/08/31 00:11:12;;;;;;;10.27;5.75;;;;;;;25.74;76.49;100671.09;5013012;28;20052;-80
2022/08/31 00:13:41;;;;;;;7.80;5.07;;;;;;;25.81;76.15;100675.97;5011371;28;20041;-80
2022/08/31 00:16:11;;;;;;;8.55;5.68;;;;;;;25.81;76.05;100677.97;5011892;28;20061;-81
2022/08/31 00:18:39;;;;;;;6.28;4.63;;;;;;;25.75;75.74;100681.13;5012486;28;20501;-80
2022/08/31 00:21:07;;;;;;;5.47;4.97;;;;;;;25.70;75.71;100680.66;5012016;28;20058;-80
2022/08/31 00:23:35;;;;;;;5.65;4.75;;;;;;;25.71;74.97;100680.25;5011782;28;20042;-79
2022/08/31 00:26:03;;;;;;;5.65;4.70;;;;;;;25.65;74.53;100669.78;5011908;28;20401;-79
2022/08/31 00:28:31;;;;;;;5.88;5.20;;;;;;;25.60;74.65;100673.72;5011774;28;20050;-79
2022/08/31 00:30:58;;;;;;;5.68;4.28;;;;;;;25.44;74.72;100671.91;5011608;28;20397;-80
2022/08/31 00:33:26;;;;;;;5.53;4.50;;;;;;;25.29;74.94;100672.91;5009855;28;20057;-80
2022/08/31 00:35:54;;;;;;;5.72;4.63;;;;;;;25.29;74.83;100658.91;5012160;28;20042;-80
2022/08/31 00:38:22;;;;;;;7.53;5.63;;;;;;;25.07;76.87;100659.41;5012024;28;20080;-80
2022/08/31 00:40:50;;;;;;;9.93;7.20;;;;;;;25.18;78.59;100650.38;4997694;28;20062;-79
2022/08/31 00:43:45;;;;;;;10.18;7.55;;;;;;;25.22;77.78;100642.81;4992575;28;20054;-80
2022/08/31 00:46:17;;;;;;;12.88;9.00;;;;;;;25.45;76.74;100645.50;4992255;28;20053;-79
2022/08/31 00:49:03;;;;;;;12.45;9.50;;;;;;;25.68;75.66;100650.22;4990749;28;20489;-80
2022/08/31 00:51:38;;;;;;;16.02;11.38;;;;;;;25.50;76.29;100647.16;5006732;28;20065;-79
2022/08/31 00:54:08;;;;;;;21.02;10.98;;;;;;;25.39;75.76;100652.63;4992058;28;20062;-79
2022/08/31 00:56:40;;;;;;;22.13;11.35;;;;;;;25.51;76.36;100648.75;4991104;28;20432;-80
2022/08/31 00:59:07;;;;;;;19.40;12.85;;;;;;;25.46;76.15;100652.72;4993084;28;20401;-80
2022/08/31 01:01:35;;;;;;;18.67;12.60;;;;;;;25.49;75.90;100651.16;4991646;28;20050;-80
2022/08/31 01:04:04;;;;;;;17.58;12.32;;;;;;;25.20;76.70;100648.81;4990055;28;20058;-80
2022/08/31 01:06:33;;;;;;;17.42;11.85;;;;;;;25.58;75.52;100656.50;4987451;28;20062;-80
2022/08/31 01:09:05;;;;;;;16.23;11.80;;;;;;;25.45;76.49;100662.31;4991537;28;20053;-80
2022/08/31 01:11:35;;;;;;;19.42;12.68;;;;;;;25.20;77.21;100662.81;4990357;28;20046;-79
2022/08/31 01:14:03;;;;;;;18.17;12.43;;;;;;;25.03;77.96;100666.94;4991976;28;20062;-78
2022/08/31 01:16:36;;;;;;;19.58;14.07;;;;;;;24.99;77.72;100656.88;4989875;28;20058;-79
2022/08/31 01:19:12;;;;;;;19.15;12.02;;;;;;;24.77;78.60;100673.31;4990885;28;20050;-80
2022/08/31 01:21:51;;;;;;;19.17;12.48;;;;;;;25.09;77.64;100667.44;4991163;28;20477;-79
2022/08/31 01:24:20;;;;;;;19.75;12.60;;;;;;;25.05;77.78;100663.78;4991376;28;20046;-80
2022/08/31 01:26:49;;;;;;;18.98;12.30;;;;;;;24.80;79.17;100669.78;4995415;28;20046;-80
2022/08/31 01:29:25;;;;;;;22.38;12.95;;;;;;;24.64;79.57;100665.13;4995833;28;20050;-79
2022/08/31 01:31:53;;;;;;;16.60;11.60;;;;;;;24.47;79.70;100674.03;4995681;28;20050;-78
2022/08/31 01:34:23;;;;;;;17.70;12.18;;;;;;;24.61;78.98;100674.28;4993698;28;20051;-79
2022/08/31 01:36:52;;;;;;;18.02;10.43;;;;;;;24.77;77.42;100676.13;4995227;28;20397;-79
2022/08/31 01:39:20;;;;;;;15.48;9.70;;;;;;;24.81;77.01;100669.44;4985694;28;20126;-79
2022/08/31 01:41:49;;;;;;;15.85;11.07;;;;;;;24.75;76.62;100676.50;5006258;28;20061;-79
2022/08/31 01:44:20;;;;;;;15.10;9.23;;;;;;;24.58;77.19;100680.63;5004220;28;20497;-78
2022/08/31 01:46:50;;;;;;;14.18;9.93;;;;;;;24.66;76.82;100685.16;5013344;28;20065;-80
2022/08/31 01:49:20;;;;;;;15.93;10.82;;;;;;;24.46;77.55;100678.03;4988069;28;20058;-80
2022/08/31 01:51:51;;;;;;;14.77;10.48;;;;;;;24.53;77.24;100681.75;5014416;28;20062;-80
2022/08/31 01:54:19;;;;;;;14.88;9.15;;;;;;;24.46;77.09;100675.22;5005057;28;20062;-79
2022/08/31 01:56:48;;;;;;;12.75;8.77;;;;;;;24.31;76.64;100683.38;4993783;28;20043;-80
2022/08/31 01:59:24;;;;;;;11.75;7.93;;;;;;;24.36;76.61;100674.69;4993928;28;20042;-79
2022/08/31 02:02:04;;;;;;;13.90;8.55;;;;;;;24.54;75.03;100674.97;4983189;28;20078;-80
2022/08/31 02:04:32;;;;;;;12.15;7.05;;;;;;;24.40;75.30;100672.72;5009132;28;20386;-79
2022/08/31 02:07:00;;;;;;;8.15;6.03;;;;;;;24.19;75.08;100672.38;4994466;28;20054;-78
2022/08/31 02:09:29;;;;;;;7.72;6.00;;;;;;;24.29;74.70;100672.56;4993673;28;20066;-78
2022/08/31 02:11:58;;;;;;;8.68;5.88;;;;;;;24.34;73.82;100659.44;4993182;28;20046;-80
2022/08/31 02:14:26;;;;;;;9.90;6.00;;;;;;;24.37;74.27;100658.69;4994331;28;20393;-80
2022/08/31 02:16:54;;;;;;;6.82;5.55;;;;;;;24.39;73.61;100661.94;4994354;28;20817;-79
2022/08/31 02:19:22;;;;;;;8.90;5.72;;;;;;;24.61;73.07;100674.28;4993753;28;20054;-78
2022/08/31 02:21:50;;;;;;;10.63;5.80;;;;;;;24.61;73.28;100668.69;4994101;28;20058;-79
2022/08/31 02:24:17;;;;;;;7.32;5.57;;;;;;;24.66;72.61;100668.38;4992776;28;20072;-78
2022/08/31 02:26:45;;;;;;;9.38;6.03;;;;;;;24.60;72.64;100666.25;4988116;28;20041;-79
2022/08/31 02:29:20;;;;;;;6.50;5.18;;;;;;;24.41;73.16;100662.38;4982414;28;20054;-79
2022/08/31 02:31:48;;;;;;;9.10;4.93;;;;;;;24.39;73.45;100661.94;4985179;28;20448;-80
2022/08/31 02:34:16;;;;;;;7.63;5.13;;;;;;;24.32;72.46;100657.03;4975298;28;20054;-78
2022/08/31 02:36:44;;;;;;;5.57;4.45;;;;;;;24.37;72.66;100656.72;4974716;28;20046;-79
2022/08/31 02:39:13;;;;;;;4.85;4.18;;;;;;;24.37;72.52;100664.28;4968326;28;20478;-79
2022/08/31 02:41:41;;;;;;;5.05;4.03;;;;;;;24.49;72.13;100663.31;4975396;28;20054;-79
2022/08/31 02:44:09;;;;;;;5.53;4.15;;;;;;;24.37;71.39;100667.91;4972847;28;20058;-79
2022/08/31 02:46:37;;;;;;;5.40;3.65;;;;;;;24.29;71.91;100663.34;4973745;28;20056;-80
2022/08/31 02:49:32;;;;;;;5.60;3.83;;;;;;;24.57;71.68;100670.63;4973777;28;20043;-79
2022/08/31 02:52:04;;;;;;;5.30;4.07;;;;;;;24.59;71.14;100662.69;4975517;28;20054;-78
2022/08/31 02:54:32;;;;;;;3.80;3.40;;;;;;;24.36;71.41;100666.28;4982095;28;20050;-79
2022/08/31 02:57:01;;;;;;;5.15;3.33;;;;;;;24.69;69.13;100670.41;4972895;28;20046;-79
2022/08/31 02:59:29;;;;;;;3.78;3.45;;;;;;;24.83;69.07;100663.47;4963383;28;20047;-80
2022/08/31 03:01:57;;;;;;;3.55;2.85;;;;;;;24.79;67.99;100668.16;4968808;28;20051;-79
2022/08/31 03:04:26;;;;;;;2.88;2.67;;;;;;;24.82;67.34;100659.84;4971860;28;20409;-79
2022/08/31 03:06:54;;;;;;;3.03;2.38;;;;;;;24.76;67.69;100660.50;4974524;28;20054;-79
2022/08/31 03:09:22;;;;;;;2.42;2.10;;;;;;;24.52;68.18;100677.34;4974444;28;20501;-80
2022/08/31 03:11:50;;;;;;;2.58;2.28;;;;;;;24.53;68.26;100675.34;4974031;28;20035;-79
2022/08/31 03:14:18;;;;;;;2.78;2.35;;;;;;;24.70;67.57;100680.41;4974373;28;20051;-80
2022/08/31 03:16:45;;;;;;;2.53;2.20;;;;;;;24.79;67.29;100685.75;4962622;28;20047;-79
2022/08/31 03:19:20;;;;;;;2.78;2.38;;;;;;;24.69;67.55;100687.19;4973027;28;20402;-80
2022/08/31 03:21:48;;;;;;;2.78;2.08;;;;;;;24.84;68.05;100690.28;4962897;28;20196;-79
2022/08/31 03:24:24;;;;;;;2.20;1.95;;;;;;;24.79;67.33;100682.94;4973157;28;20497;-79
2022/08/31 03:26:54;;;;;;;2.70;2.47;;;;;;;24.73;67.67;100692.06;4972757;28;20047;-80
2022/08/31 03:29:22;;;;;;;2.80;2.50;;;;;;;24.69;67.50;100686.41;4973060;28;20401;-80
2022/08/31 03:32:22;;;;;;;2.35;2.15;;;;;;;24.54;68.55;100688.94;4971317;28;20054;-79
2022/08/31 03:34:56;;;;;;;3.22;2.50;;;;;;;24.48;69.25;100689.66;4991849;28;20050;-79
2022/08/31 03:37:25;;;;;;;2.95;2.67;;;;;;;24.67;69.26;100689.56;4991707;28;20096;-79
2022/08/31 03:39:56;;;;;;;2.35;2.15;;;;;;;24.66;68.24;100692.75;4983290;28;20128;-79
2022/08/31 03:42:25;;;;;;;5.40;2.10;;;;;;;24.60;68.42;100697.03;4992349;28;20043;-79
2022/08/31 03:44:55;;;;;;;2.38;2.03;;;;;;;24.75;68.87;100695.28;4991226;28;20053;-79
2022/08/31 03:47:28;;;;;;;3.58;2.33;;;;;;;24.65;69.02;100689.16;4991377;28;20043;-81
2022/08/31 03:49:57;;;;;;;4.50;2.65;;;;;;;24.78;69.31;100691.75;4991122;28;20053;-80
2022/08/31 03:52:31;;;;;;;2.33;2.13;;;;;;;24.61;69.91;100695.84;4991884;28;20046;-80
2022/08/31 03:55:02;;;;;;;2.78;2.35;;;;;;;24.64;70.06;100687.50;4991693;28;20058;-80
2022/08/31 03:57:29;;;;;;;2.78;2.53;;;;;;;24.59;70.49;100689.84;4991382;28;20057;-77
2022/08/31 03:59:59;;;;;;;3.05;2.75;;;;;;;24.52;70.22;100699.72;4991856;28;20374;-76
2022/08/31 04:02:42;;;;;;;2.78;2.55;;;;;;;24.42;71.28;100692.75;4987269;28;20058;-76
2022/08/31 04:05:31;;;;;;;3.13;2.75;;;;;;;24.39;71.83;100693.50;4980174;28;20057;-76
2022/08/31 04:08:27;;;;;;;4.20;2.67;;;;;;;24.18;72.01;100687.53;4992870;28;20039;-76
2022/08/31 04:11:16;;;;;;;2.38;2.10;;;;;;;24.20;72.40;100680.41;4992724;28;20058;-76
2022/08/31 04:14:06;;;;;;;2.42;2.13;;;;;;;24.18;71.81;100696.72;4993196;28;20058;-76
2022/08/31 04:16:38;;;;;;;3.55;2.13;;;;;;;24.13;72.58;100691.44;4992852;28;20049;-76
2022/08/31 04:19:36;;;;;;;2.95;2.35;;;;;;;24.13;72.25;100697.84;5007509;28;20057;-77
2022/08/31 04:22:27;;;;;;;2.70;2.45;;;;;;;24.22;71.16;100694.81;4981974;28;20494;-76
2022/08/31 04:25:15;;;;;;;2.70;2.50;;;;;;;24.28;71.64;100703.69;4991784;28;20046;-76
2022/08/31 04:27:49;;;;;;;2.83;2.53;;;;;;;24.30;71.25;100706.94;5007793;28;20034;-76
2022/08/31 04:30:19;;;;;;;3.50;2.38;;;;;;;24.28;71.55;100701.69;4991536;28;20050;-76
2022/08/31 04:32:48;;;;;;;2.83;2.13;;;;;;;24.21;70.85;100697.97;4987118;28;20482;-76
2022/08/31 04:35:16;;;;;;;1.90;1.70;;;;;;;24.37;70.20;100704.25;4984743;28;20054;-76
2022/08/31 04:37:44;;;;;;;3.20;2.30;;;;;;;24.85;69.33;100700.28;4975345;28;20046;-76
2022/08/31 04:40:19;;;;;;;3.08;2.47;;;;;;;25.02;69.44;100706.53;4956294;28;20059;-75
2022/08/31 04:42:53;;;;;;;3.20;2.63;;;;;;;25.27;68.63;100711.69;4972396;28;20409;-76
2022/08/31 04:45:23;;;;;;;2.38;2.17;;;;;;;25.31;67.22;100709.75;4956336;28;20054;-76
2022/08/31 04:47:52;;;;;;;2.63;2.30;;;;;;;25.25;65.33;100711.25;4970665;28;20505;-76
2022/08/31 04:50:21;;;;;;;1.95;1.80;;;;;;;25.08;65.45;100710.63;4972195;28;20046;-76
2022/08/31 04:53:06;;;;;;;1.58;1.48;;;;;;;24.94;66.25;100705.63;4958109;28;20042;-76
2022/08/31 04:55:44;;;;;;;2.47;2.13;;;;;;;24.95;65.93;100715.63;4971438;28;20050;-76
2022/08/31 04:58:14;;;;;;;3.58;1.90;;;;;;;25.12;65.54;100719.88;4959716;28;20046;-76
2022/08/31 05:00:42;;;;;;;3.80;2.10;;;;;;;25.18;65.50;100720.38;4962405;28;20050;-76
2022/08/31 05:03:29;;;;;;;2.30;2.10;;;;;;;25.32;65.72;100725.38;4970399;28;20405;-77
2022/08/31 05:05:57;;;;;;;3.03;2.40;;;;;;;25.47;64.84;100718.75;4962672;28;20057;-78
2022/08/31 05:08:27;;;;;;;2.35;2.15;;;;;;;25.32;65.06;100728.97;4958514;28;20050;-78
2022/08/31 05:10:56;;;;;;;3.78;2.15;;;;;;;25.48;65.25;100734.38;4977170;28;20478;-78
2022/08/31 05:13:25;;;;;;;2.83;2.22;;;;;;;25.45;66.63;100729.53;4987169;28;20057;-78
2022/08/31 05:15:54;;;;;;;3.03;2.50;;;;;;;25.30;68.08;100733.31;4957245;28;20047;-78
2022/08/31 05:18:24;;;;;;;4.18;2.95;;;;;;;25.28;67.94;100735.69;4982290;28;20501;-78
2022/08/31 05:20:56;;;;;;;4.80;3.15;;;;;;;25.40;68.17;100743.88;4962524;28;20062;-78
2022/08/31 05:23:24;;;;;;;3.42;2.83;;;;;;;25.62;67.45;100742.19;4980407;28;20046;-77
2022/08/31 05:25:52;;;;;;;3.95;3.15;;;;;;;25.53;68.08;100735.25;4963874;28;20061;-77
2022/08/31 05:28:22;;;;;;;6.38;3.58;;;;;;;25.69;67.45;100741.50;4958626;28;20043;-77
2022/08/31 05:30:50;;;;;;;5.30;3.70;;;;;;;25.82;66.88;100742.06;4997428;28;20042;-78
2022/08/31 05:33:30;;;;;;;3.33;3.03;;;;;;;25.98;66.00;100738.22;4983199;28;20061;-77
2022/08/31 05:36:02;;;;;;;3.95;3.55;;;;;;;26.11;65.81;100735.97;4981711;28;20050;-78
2022/08/31 05:38:30;;;;;;;6.25;3.80;;;;;;;26.12;65.74;100735.59;4981829;28;20053;-77
2022/08/31 05:41:00;;;;;;;3.45;3.15;;;;;;;26.12;65.56;100740.38;4968190;28;20054;-77
2022/08/31 05:43:28;;;;;;;6.78;3.78;;;;;;;26.08;65.93;100742.34;5003805;28;20053;-77
2022/08/31 05:45:56;;;;;;;4.65;3.63;;;;;;;26.04;66.39;100736.69;5013915;28;20041;-77
2022/08/31 05:48:26;;;;;;;4.30;3.72;;;;;;;25.95;67.33;100733.41;4995441;28;20110;-77
2022/08/31 05:51:06;;;;;;;6.45;3.55;;;;;;;26.15;66.02;100731.22;4994183;28;20500;-77
2022/08/31 05:53:38;;;;;;;5.60;3.28;;;;;;;26.27;65.60;100741.38;4992279;28;20148;-77
2022/08/31 05:56:12;;;;;;;5.68;4.30;;;;;;;26.32;65.46;100740.22;4993442;28;20580;-77
2022/08/31 05:58:42;;;;;;;4.88;4.05;;;;;;;25.96;67.01;100744.22;4992734;28;20046;-77
2022/08/31 06:01:13;;;;;;;4.32;3.88;;;;;;;26.10;66.49;100743.56;4993518;28;20445;-77
2022/08/31 06:04:00;;;;;;;6.78;4.50;;;;;;;26.16;66.85;100746.84;4982198;28;20501;-77
2022/08/31 06:06:29;;;;;;;6.30;4.70;;;;;;;26.10;66.77;100746.38;4993775;28;20417;-77
2022/08/31 06:08:58;;;;;;;6.43;4.82;;;;;;;25.99;67.18;100748.25;4992464;28;20034;-78
2022/08/31 06:11:28;;;;;;;9.85;5.43;;;;;;;26.13;67.13;100753.22;4993471;28;20049;-77
2022/08/31 06:13:58;;;;;;;7.82;5.30;;;;;;;26.17;66.93;100751.28;4991980;28;20485;-78
2022/08/31 06:16:28;;;;;;;7.50;4.97;;;;;;;26.06;67.22;100750.34;4991877;28;20050;-77
2022/08/31 06:19:02;;;;;;;6.35;5.07;;;;;;;25.96;67.07;100752.63;4989988;28;20408;-77
2022/08/31 06:21:40;;;;;;;7.25;5.10;;;;;;;26.17;67.24;100760.50;4989246;28;20050;-77
2022/08/31 06:24:23;;;;;;;6.65;4.57;;;;;;;26.30;66.83;100752.63;4992802;28;20050;-77
2022/08/31 06:26:58;;;;;;;6.72;4.82;;;;;;;26.34;66.81;100754.69;4993781;28;20046;-77
2022/08/31 06:29:30;;;;;;;7.57;4.95;;;;;;;26.50;66.10;100757.25;4990337;28;20062;-77
2022/08/31 06:32:04;;;;;;;8.60;5.03;;;;;;;26.08;67.28;100748.75;4988586;28;20046;-77
2022/08/31 06:34:34;;;;;;;8.50;5.40;;;;;;;26.23;66.85;100765.78;4986624;28;20048;-78
2022/08/31 06:37:08;;;;;;;8.85;5.03;;;;;;;26.45;66.32;100761.22;4991574;28;20050;-77
2022/08/31 06:39:46;;;;;;;11.95;6.35;;;;;;;26.47;65.90;100758.00;4992024;28;20045;-77
2022/08/31 06:42:34;;;;;;;9.52;5.18;;;;;;;26.32;66.93;100754.25;4983942;28;20062;-77
2022/08/31 06:45:03;;;;;;;7.05;5.47;;;;;;;26.18;67.37;100755.69;4987535;28;20069;-78
2022/08/31 06:47:43;;;;;;;7.38;5.65;;;;;;;26.27;67.26;100752.59;4985631;28;20402;-78
2022/08/31 06:50:12;;;;;;;8.82;4.95;;;;;;;26.41;66.81;100760.34;4991078;28;20039;-77
2022/08/31 06:52:40;;;;;;;9.13;4.70;;;;;;;26.47;66.58;100749.59;4987623;28;20046;-78
2022/08/31 06:55:31;;;;;;;8.13;5.78;;;;;;;26.43;66.72;100763.56;4964776;28;20068;-78
2022/08/31 06:58:17;;;;;;;8.75;5.10;;;;;;;26.64;65.56;100754.56;4987037;28;20473;-78
2022/08/31 07:01:12;;;;;;;9.68;5.30;;;;;;;26.79;65.79;100763.13;4984389;28;20051;-78
2022/08/31 07:03:58;;;;;;;9.32;5.82;;;;;;;27.04;64.06;100768.16;4968296;28;20047;-77
2022/08/31 07:06:29;;;;;;;7.32;5.80;;;;;;;27.09;64.91;100762.97;4983307;28;20409;-77
2022/08/31 07:09:02;;;;;;;7.68;5.55;;;;;;;27.32;63.18;100767.53;4990951;28;20042;-78
2022/08/31 07:11:35;;;;;;;5.90;5.13;;;;;;;27.48;62.47;100758.00;4989509;28;20050;-77
2022/08/31 07:14:14;;;;;;;6.28;5.00;;;;;;;27.73;61.46;100758.19;4984324;28;20520;-77
2022/08/31 07:16:44;;;;;;;8.20;5.82;;;;;;;27.69;61.00;100762.16;4986726;28;20045;-77
2022/08/31 07:19:14;;;;;;;8.55;5.15;;;;;;;27.93;59.87;100763.47;4990931;28;20054;-77
2022/08/31 07:21:49;;;;;;;6.93;5.25;;;;;;;28.09;59.96;100757.47;4988561;28;20486;-78
2022/08/31 07:24:23;;;;;;;8.82;5.90;;;;;;;28.09;60.41;100762.31;4986128;28;20053;-78
2022/08/31 07:26:57;;;;;;;6.03;5.05;;;;;;;27.84;60.90;100763.00;4983774;28;20050;-77
2022/08/31 07:29:41;;;;;;;5.90;4.43;;;;;;;28.13;59.99;100768.75;4988366;28;20043;-77
2022/08/31 07:32:14;;;;;;;6.28;4.70;;;;;;;28.23;58.59;100761.56;4989667;28;20053;-77
2022/08/31 07:34:43;;;;;;;8.63;5.40;;;;;;;28.17;58.48;100767.56;4982666;28;20054;-78
2022/08/31 07:43:03;;;;;;;4.90;4.13;;;;;;;28.31;57.57;100774.47;4983514;28;20035;-78
2022/08/31 07:45:33;;;;;;;4.65;3.90;;;;;;;28.37;57.30;100772.88;4985555;28;20038;-77
2022/08/31 07:48:07;;;;;;;8.98;4.30;;;;;;;28.41;56.71;100772.88;4989529;28;20042;-77
2022/08/31 07:50:48;;;;;;;12.55;4.22;;;;;;;28.54;55.66;100782.53;4982994;28;20390;-78
2022/08/31 07:53:23;;;;;;;27.75;4.30;;;;;;;28.63;54.48;100776.50;4978040;28;20047;-77
2022/08/31 07:56:07;;;;;;;9.73;3.90;;;;;;;28.73;54.76;100782.56;4985827;28;20047;-78
2022/08/31 07:58:38;;;;;;;7.68;4.20;;;;;;;28.66;56.09;100780.53;4983125;28;20035;-78
2022/08/31 08:01:08;;;;;;;5.32;3.88;;;;;;;28.67;56.07;100777.31;4984883;28;20050;-79
2022/08/31 08:03:43;;;;;;;5.13;3.75;;;;;;;28.65;56.49;100788.19;4989044;28;20061;-79
2022/08/31 08:06:36;;;;;;;6.38;3.92;;;;;;;28.35;57.64;100786.50;4989431;28;20038;-79
2022/08/31 08:09:16;;;;;;;5.43;3.50;;;;;;;28.09;58.55;100779.19;4986384;28;20053;-77
2022/08/31 08:12:10;;;;;;;4.30;3.80;;;;;;;27.92;59.02;100787.16;4991125;28;20489;-78
2022/08/31 08:15:09;;;;;;;4.35;3.85;;;;;;;27.86;58.60;100786.72;4992107;28;20058;-78
2022/08/31 08:17:49;;;;;;;6.00;3.95;;;;;;;27.63;59.88;100785.00;4991031;28;20050;-78
2022/08/31 08:20:22;;;;;;;7.00;4.78;;;;;;;27.63;59.52;100787.81;4975065;28;20039;-78
2022/08/31 08:23:11;;;;;;;6.80;4.95;;;;;;;27.71;60.22;100791.47;4986307;28;20050;-78
2022/08/31 08:26:07;;;;;;;6.38;4.53;;;;;;;27.70;59.66;100786.28;4990507;28;20050;-77
2022/08/31 08:29:05;;;;;;;5.90;4.88;;;;;;;28.16;58.68;100791.25;4986095;28;20050;-77
2022/08/31 08:31:36;;;;;;;9.73;5.53;;;;;;;28.24;57.85;100794.16;4989960;28;20099;-77
2022/08/31 08:34:05;;;;;;;6.15;4.32;;;;;;;28.50;56.29;100792.19;4990681;28;20294;-78
2022/08/31 08:36:35;;;;;;;6.53;4.88;;;;;;;28.33;56.25;100793.78;4970332;28;20054;-77
2022/08/31 08:39:06;;;;;;;5.97;3.97;;;;;;;28.66;55.05;100794.63;4984860;28;20046;-78
2022/08/31 08:41:38;;;;;;;5.90;3.72;;;;;;;28.68;54.60;100793.00;4966846;28;20046;-78
2022/08/31 08:44:10;;;;;;;8.15;3.70;;;;;;;28.70;54.17;100787.00;4994375;28;20505;-78
2022/08/31 08:46:55;;;;;;;4.45;3.33;;;;;;;28.66;53.26;100797.44;4990563;28;20057;-78
2022/08/31 08:49:45;;;;;;;3.33;2.60;;;;;;;28.72;52.27;100793.00;4974407;28;20042;-77
2022/08/31 08:52:24;;;;;;;3.15;2.40;;;;;;;28.59;50.93;100789.78;4990521;28;20037;-76
2022/08/31 08:54:56;;;;;;;5.32;2.30;;;;;;;28.56;51.09;100784.97;4988315;28;20054;-76
2022/08/31 08:57:33;;;;;;;2.78;2.20;;;;;;;28.38;52.21;100780.09;4996722;28;20403;-77
2022/08/31 09:00:09;;;;;;;2.83;2.20;;;;;;;28.26;52.18;100774.84;4963861;28;20053;-77
2022/08/31 09:03:02;;;;;;;2.67;2.17;;;;;;;28.34;52.02;100784.13;5007031;28;20034;-77
2022/08/31 09:06:04;;;;;;;2.40;2.20;;;;;;;28.73;50.91;100780.53;4985150;28;20054;-78
2022/08/31 09:08:47;;;;;;;4.63;2.60;;;;;;;28.78;50.14;100779.34;4987332;28;20490;-78
2022/08/31 09:11:17;;;;;;;2.30;2.10;;;;;;;29.05;50.48;100788.22;4987062;28;20053;-78
2022/08/31 09:14:18;;;;;;;3.60;2.53;;;;;;;29.20;50.30;100794.66;4991169;28;20038;-78
2022/08/31 09:17:07;;;;;;;3.17;1.92;;;;;;;29.57;48.22;100797.44;4988893;28;20049;-78
2022/08/31 09:22:21;;;;;;;2.65;1.98;;;;;;;29.29;49.40;100797.06;4989274;28;20039;-77
2022/08/31 09:24:55;;;;;;;3.25;2.00;;;;;;;29.30;49.32;100781.75;4971963;28;20050;-78
2022/08/31 09:27:56;;;;;;;2.30;2.10;;;;;;;28.88;49.26;100778.56;4988542;28;20046;-78
2022/08/31 09:30:49;;;;;;;2.42;1.83;;;;;;;28.54;50.03;100771.28;4989283;28;20497;-78
2022/08/31 09:33:24;;;;;;;5.75;2.25;;;;;;;28.66;51.15;100770.09;4990099;28;20050;-78
2022/08/31 09:36:12;;;;;;;2.15;1.95;;;;;;;28.84;49.38;100780.56;4989350;28;20050;-78
2022/08/31 09:38:42;;;;;;;1.95;1.75;;;;;;;28.74;48.69;100768.06;4989102;28;20409;-78
2022/08/31 09:41:28;;;;;;;2.88;1.98;;;;;;;28.88;49.14;100772.94;4989802;28;20054;-77
2022/08/31 09:44:27;;;;;;;2.08;1.83;;;;;;;28.68;48.96;100756.41;4986907;28;20073;-77
2022/08/31 09:46:59;;;;;;;1.55;1.10;;;;;;;28.68;49.04;100752.78;4990983;28;20046;-78
2022/08/31 09:49:31;;;;;;;1.60;1.50;;;;;;;28.51;48.90;100748.75;4992606;28;20057;-77
2022/08/31 09:55:12;;;;;;;2.05;1.85;;;;;;;28.67;49.24;100751.19;4993378;28;20474;-77
2022/08/31 09:55:18;;;;;;;;;;;;;;;28.84;50.06;100736.28;4992412;28;20482;-78
2022/08/31 09:58:01;;;;;;;1.70;1.60;;;;;;;29.00;49.95;100748.38;4991711;28;20296;-78
2022/08/31 10:00:45;;;;;;;5.63;2.30;;;;;;;28.79;48.91;100733.88;4989598;28;20047;-77
2022/08/31 10:03:27;;;;;;;1.88;1.75;;;;;;;28.81;48.21;100731.47;4990574;28;20055;-78
2022/08/31 10:05:55;;;;;;;1.60;1.50;;;;;;;28.89;49.38;100723.88;4993313;28;20046;-78
2022/08/31 10:08:34;;;;;;;2.45;2.00;;;;;;;28.90;49.24;100722.66;4991698;28;20046;-78
2022/08/31 10:11:10;;;;;;;1.98;1.58;;;;;;;28.76;48.92;100714.16;4993394;28;20050;-77
2022/08/31 10:13:52;;;;;;;2.08;1.83;;;;;;;28.93;48.62;100724.66;4986986;28;20042;-77
2022/08/31 10:16:46;;;;;;;3.58;1.70;;;;;;;28.89;49.45;100717.41;4985025;28;20047;-77
2022/08/31 10:19:48;;;;;;;2.22;1.90;;;;;;;29.06;49.29;100713.78;4980982;28;20501;-77
2022/08/31 10:22:39;;;;;;;1.60;1.50;;;;;;;29.35;49.06;100707.25;4968444;28;20053;-76
2022/08/31 10:25:21;;;;;;;2.00;1.77;;;;;;;28.93;49.67;100706.97;4992237;28;20054;-76
2022/08/31 10:28:40;;;;;;;3.20;1.80;;;;;;;29.07;49.67;100703.28;4984598;28;20050;-77
2022/08/31 10:31:48;;;;;;;2.47;2.10;;;;;;;29.00;50.68;100692.03;4983101;28;20490;-77
2022/08/31 10:38:16;;;;;;;2.53;2.20;;;;;;;29.66;50.41;100667.31;4991722;28;20057;-77
2022/08/31 10:41:11;;;;;;;2.83;2.53;;;;;;;30.00;47.77;100664.69;4995611;28;20473;-76
2022/08/31 10:44:06;;;;;;;2.10;1.90;;;;;;;29.90;46.73;100662.72;4990444;28;20054;-75
2022/08/31 10:46:43;;;;;;;3.20;2.15;;;;;;;29.75;46.53;100667.63;4988758;28;20054;-76
2022/08/31 10:49:13;;;;;;;;;;;;;;;29.82;47.85;100661.16;4985968;28;20038;-77
2022/08/31 10:52:09;;;;;;;2.13;1.48;;;;;;;29.67;47.36;100657.63;4973485;28;19922;-78
2022/08/31 10:55:06;;;;;;;2.53;1.92;;;;;;;29.78;46.74;100666.84;4992154;28;20035;-78
2022/08/31 10:58:03;;;;;;;1.83;1.73;;;;;;;30.02;46.15;100655.81;4985931;28;20042;-77
2022/08/31 11:00:47;;;;;;;2.65;1.98;;;;;;;29.92;46.38;100657.50;4991911;28;20043;-77
2022/08/31 11:03:45;;;;;;;2.60;2.40;;;;;;;29.77;47.02;100653.94;4991399;28;20046;-78
2022/08/31 11:06:25;;;;;;;2.90;1.88;;;;;;;29.37;48.49;100663.38;4990738;28;20050;-78
2022/08/31 11:09:22;;;;;;;1.92;1.83;;;;;;;29.57;47.39;100664.94;4991212;28;20042;-77
2022/08/31 11:12:05;;;;;;;2.95;2.10;;;;;;;29.42;47.89;100655.72;4984671;28;20057;-78
2022/08/31 11:15:08;;;;;;;2.40;1.95;;;;;;;29.25;48.75;100649.72;4989228;28;20046;-78
2022/08/31 11:17:43;;;;;;;2.90;1.97;;;;;;;29.58;48.72;100647.59;4991555;28;20405;-78
2022/08/31 11:20:28;;;;;;;3.00;1.85;;;;;;;29.78;47.90;100645.06;4987639;28;20409;-78
2022/08/31 11:23:05;;;;;;;1.88;1.77;;;;;;;29.31;47.58;100667.00;4989108;28;20490;-78
2022/08/31 11:25:46;;;;;;;2.30;2.15;;;;;;;29.30;48.74;100651.31;4991447;28;20058;-77
2022/08/31 11:28:33;;;;;;;2.33;1.83;;;;;;;29.53;48.53;100639.56;4991495;28;20053;-79
2022/08/31 11:31:22;;;;;;;2.92;2.15;;;;;;;29.58;48.68;100653.25;4990672;28;20046;-78
2022/08/31 11:34:06;;;;;;;3.80;2.35;;;;;;;29.74;48.11;100652.75;4990384;28;20049;-79
2022/08/31 11:36:56;;;;;;;2.13;1.90;;;;;;;29.89;48.14;100658.28;4989823;28;20045;-79
2022/08/31 11:39:44;;;;;;;3.05;1.65;;;;;;;29.98;48.29;100650.19;4991885;28;20057;-78
2022/08/31 11:42:25;;;;;;;2.40;2.20;;;;;;;30.00;47.46;100646.97;4988684;28;20057;-78
2022/08/31 11:45:07;;;;;;;2.78;2.30;;;;;;;30.08;46.24;100650.50;4987483;28;20055;-76
2022/08/31 11:47:42;;;;;;;2.28;2.00;;;;;;;30.44;46.60;100647.44;4987056;28;20046;-77
2022/08/31 11:50:29;;;;;;;2.65;2.40;;;;;;;30.30;46.24;100642.72;4988538;28;20045;-76
2022/08/31 11:53:00;;;;;;;2.78;1.90;;;;;;;30.13;46.68;100627.53;4987990;28;20043;-77
2022/08/31 11:55:44;;;;;;;2.28;1.95;;;;;;;30.07;47.20;100620.69;4985387;28;20069;-78
2022/08/31 11:58:33;;;;;;;2.28;2.08;;;;;;;29.97;46.79;100625.22;4984062;28;20050;-77
2022/08/31 12:01:08;;;;;;;2.50;2.30;;;;;;;30.13;47.29;100604.97;4982836;28;20049;-77
2022/08/31 12:03:52;;;;;;;3.50;1.80;;;;;;;30.31;47.54;100616.91;4990192;28;20112;-77
2022/08/31 12:06:32;;;;;;;;;;;;;;;29.93;47.64;100615.97;4990609;28;20397;-77
2022/08/31 12:09:18;;;;;;;1.98;1.88;;;;;;;29.84;47.70;100622.88;4991243;28;19929;-77
2022/08/31 12:11:46;;;;;;;2.13;1.90;;;;;;;29.67;47.43;100627.44;4988400;28;20047;-76
2022/08/31 12:14:42;;;;;;;2.20;2.00;;;;;;;29.52;48.29;100642.81;4992027;28;20054;-77
2022/08/31 12:17:26;;;;;;;3.80;2.10;;;;;;;29.88;47.22;100634.94;4991154;28;20054;-76
2022/08/31 12:20:07;;;;;;;3.20;2.95;;;;;;;29.73;47.17;100634.25;4985270;28;20437;-77
2022/08/31 12:26:35;;;;;;;2.78;2.20;;;;;;;29.75;48.41;100623.34;4990377;28;20054;-77
2022/08/31 12:29:26;;;;;;;2.30;1.85;;;;;;;29.98;47.91;100621.97;4990985;28;20073;-77